sensor_id;sensor_type;location;lat;lon;timestamp;P1;durP1;ratioP1;P2;durP2;ratioP2
3155;SDS011;1588;50.892;7.082;2022-09-12T00:03:18;41.20;;;14.77;;
3155;SDS011;1588;50.892;7.082;2022-09-12T00:08:21;38.40;;;15.80;;
3155;SDS011;1588;50.892;7.082;2022-09-12T00:13:27;37.53;;;14.77;;
3155;SDS011;1588;50.892;7.082;2022-09-12T00:18:29;38.83;;;15.37;;
3155;SDS011;1588;50.892;7.082;2022-09-12T00:23:32;37.77;;;15.00;;
3155;SDS011;1588;50.892;7.082;2022-09-12T00:28:36;41.50;;;13.80;;
3155;SDS011;1588;50.892;7.082;2022-09-12T00:33:39;33.30;;;13.63;;
3155;SDS011;1588;50.892;7.082;2022-09-12T00:38:43;39.60;;;14.53;;
3155;SDS011;1588;50.892;7.082;2022-09-12T00:43:48;32.23;;;13.27;;
3155;SDS011;1588;50.892;7.082;2022-09-12T00:48:53;28.07;;;13.27;;
3155;SDS011;1588;50.892;7.082;2022-09-12T00:53:59;36.83;;;14.20;;
3155;SDS011;1588;50.892;7.082;2022-09-12T00:59:09;36.83;;;13.63;;
3155;SDS011;1588;50.892;7.082;2022-09-12T01:04:17;37.63;;;14.20;;
3155;SDS011;1588;50.892;7.082;2022-09-12T01:09:22;31.53;;;14.13;;
3155;SDS011;1588;50.892;7.082;2022-09-12T01:14:28;34.67;;;13.07;;
3155;SDS011;1588;50.892;7.082;2022-09-12T01:19:48;35.40;;;13.73;;
3155;SDS011;1588;50.892;7.082;2022-09-12T01:25:14;33.80;;;13.50;;
3155;SDS011;1588;50.892;7.082;2022-09-12T01:30:30;38.20;;;14.07;;
3155;SDS011;1588;50.892;7.082;2022-09-12T01:35:44;32.27;;;12.27;;
3155;SDS011;1588;50.892;7.082;2022-09-12T01:40:58;42.27;;;15.00;;
3155;SDS011;1588;50.892;7.082;2022-09-12T01:46:08;29.00;;;12.67;;
3155;SDS011;1588;50.892;7.082;2022-09-12T01:51:15;29.53;;;14.60;;
3155;SDS011;1588;50.892;7.082;2022-09-12T01:56:24;32.83;;;12.37;;
3155;SDS011;1588;50.892;7.082;2022-09-12T02:01:30;38.80;;;14.50;;
3155;SDS011;1588;50.892;7.082;2022-09-12T02:06:34;32.97;;;12.90;;
3155;SDS011;1588;50.892;7.082;2022-09-12T02:11:41;33.63;;;13.23;;
3155;SDS011;1588;50.892;7.082;2022-09-12T02:16:48;30.50;;;13.77;;
3155;SDS011;1588;50.892;7.082;2022-09-12T02:21:54;33.10;;;14.40;;
3155;SDS011;1588;50.892;7.082;2022-09-12T02:27:02;38.10;;;13.73;;
3155;SDS011;1588;50.892;7.082;2022-09-12T02:32:10;45.00;;;14.10;;
3155;SDS011;1588;50.892;7.082;2022-09-12T02:37:22;36.47;;;14.43;;
3155;SDS011;1588;50.892;7.082;2022-09-12T02:42:28;31.53;;;12.80;;
3155;SDS011;1588;50.892;7.082;2022-09-12T02:47:33;26.37;;;11.90;;
3155;SDS011;1588;50.892;7.082;2022-09-12T02:52:40;26.77;;;11.70;;
3155;SDS011;1588;50.892;7.082;2022-09-12T02:57:43;33.33;;;14.00;;
3155;SDS011;1588;50.892;7.082;2022-09-12T03:08:34;34.50;;;12.57;;
3155;SDS011;1588;50.892;7.082;2022-09-12T03:13:49;35.67;;;12.33;;
3155;SDS011;1588;50.892;7.082;2022-09-12T03:19:05;34.67;;;13.00;;
3155;SDS011;1588;50.892;7.082;2022-09-12T03:24:15;30.33;;;12.43;;
3155;SDS011;1588;50.892;7.082;2022-09-12T03:29:19;28.87;;;12.17;;
3155;SDS011;1588;50.892;7.082;2022-09-12T03:34:25;26.90;;;12.37;;
3155;SDS011;1588;50.892;7.082;2022-09-12T03:39:28;21.60;;;10.30;;
3155;SDS011;1588;50.892;7.082;2022-09-12T03:44:30;38.57;;;12.00;;
3155;SDS011;1588;50.892;7.082;2022-09-12T03:49:34;26.33;;;12.13;;
3155;SDS011;1588;50.892;7.082;2022-09-12T03:54:36;29.97;;;12.13;;
3155;SDS011;1588;50.892;7.082;2022-09-12T03:59:39;27.13;;;12.20;;
3155;SDS011;1588;50.892;7.082;2022-09-12T04:04:42;29.10;;;11.53;;
3155;SDS011;1588;50.892;7.082;2022-09-12T04:09:45;26.00;;;11.73;;
3155;SDS011;1588;50.892;7.082;2022-09-12T04:14:48;23.37;;;11.17;;
3155;SDS011;1588;50.892;7.082;2022-09-12T04:19:51;25.33;;;11.80;;
3155;SDS011;1588;50.892;7.082;2022-09-12T04:24:54;30.00;;;11.27;;
3155;SDS011;1588;50.892;7.082;2022-09-12T04:29:56;25.60;;;11.60;;
3155;SDS011;1588;50.892;7.082;2022-09-12T04:35:01;28.67;;;11.60;;
3155;SDS011;1588;50.892;7.082;2022-09-12T04:40:03;25.90;;;10.90;;
3155;SDS011;1588;50.892;7.082;2022-09-12T04:45:06;22.33;;;11.37;;
3155;SDS011;1588;50.892;7.082;2022-09-12T04:50:11;28.20;;;9.50;;
3155;SDS011;1588;50.892;7.082;2022-09-12T04:55:14;26.70;;;11.67;;
3155;SDS011;1588;50.892;7.082;2022-09-12T05:00:16;23.57;;;10.50;;
3155;SDS011;1588;50.892;7.082;2022-09-12T05:05:21;21.73;;;10.10;;
3155;SDS011;1588;50.892;7.082;2022-09-12T05:10:24;18.30;;;9.60;;
3155;SDS011;1588;50.892;7.082;2022-09-12T05:15:28;26.47;;;9.37;;
3155;SDS011;1588;50.892;7.082;2022-09-12T05:20:31;24.97;;;9.97;;
3155;SDS011;1588;50.892;7.082;2022-09-12T05:25:33;24.67;;;11.70;;
3155;SDS011;1588;50.892;7.082;2022-09-12T05:30:36;23.60;;;10.03;;
3155;SDS011;1588;50.892;7.082;2022-09-12T05:35:40;26.83;;;11.43;;
3155;SDS011;1588;50.892;7.082;2022-09-12T05:40:42;25.17;;;11.07;;
3155;SDS011;1588;50.892;7.082;2022-09-12T05:45:44;24.23;;;11.63;;
3155;SDS011;1588;50.892;7.082;2022-09-12T05:50:48;27.23;;;11.07;;
3155;SDS011;1588;50.892;7.082;2022-09-12T05:55:50;29.23;;;11.53;;
3155;SDS011;1588;50.892;7.082;2022-09-12T06:01:03;25.10;;;11.87;;
3155;SDS011;1588;50.892;7.082;2022-09-12T06:06:09;27.20;;;11.77;;
3155;SDS011;1588;50.892;7.082;2022-09-12T06:11:13;29.90;;;11.80;;
3155;SDS011;1588;50.892;7.082;2022-09-12T06:16:18;37.77;;;12.50;;
3155;SDS011;1588;50.892;7.082;2022-09-12T06:21:26;26.80;;;11.57;;
3155;SDS011;1588;50.892;7.082;2022-09-12T06:26:33;23.57;;;11.90;;
3155;SDS011;1588;50.892;7.082;2022-09-12T06:31:36;20.10;;;9.97;;
3155;SDS011;1588;50.892;7.082;2022-09-12T06:36:42;19.97;;;10.60;;
3155;SDS011;1588;50.892;7.082;2022-09-12T06:41:46;19.40;;;10.50;;
3155;SDS011;1588;50.892;7.082;2022-09-12T06:46:49;18.10;;;9.63;;
3155;SDS011;1588;50.892;7.082;2022-09-12T06:51:54;18.20;;;10.00;;
3155;SDS011;1588;50.892;7.082;2022-09-12T06:56:57;22.43;;;9.47;;
3155;SDS011;1588;50.892;7.082;2022-09-12T07:01:59;21.43;;;10.23;;
3155;SDS011;1588;50.892;7.082;2022-09-12T07:07:02;19.53;;;7.90;;
3155;SDS011;1588;50.892;7.082;2022-09-12T07:12:05;15.40;;;8.27;;
3155;SDS011;1588;50.892;7.082;2022-09-12T07:17:08;11.37;;;6.90;;
3155;SDS011;1588;50.892;7.082;2022-09-12T07:22:13;15.77;;;7.40;;
3155;SDS011;1588;50.892;7.082;2022-09-12T07:27:16;21.67;;;7.70;;
3155;SDS011;1588;50.892;7.082;2022-09-12T07:32:18;19.30;;;7.27;;
3155;SDS011;1588;50.892;7.082;2022-09-12T07:37:24;15.07;;;7.90;;
3155;SDS011;1588;50.892;7.082;2022-09-12T07:42:35;14.77;;;7.53;;
3155;SDS011;1588;50.892;7.082;2022-09-12T07:47:37;14.77;;;6.80;;
3155;SDS011;1588;50.892;7.082;2022-09-12T07:52:42;14.63;;;8.03;;
3155;SDS011;1588;50.892;7.082;2022-09-12T07:57:44;12.70;;;6.90;;
3155;SDS011;1588;50.892;7.082;2022-09-12T08:02:49;13.70;;;6.57;;
3155;SDS011;1588;50.892;7.082;2022-09-12T08:07:53;10.40;;;6.47;;
3155;SDS011;1588;50.892;7.082;2022-09-12T08:12:56;12.70;;;6.80;;
3155;SDS011;1588;50.892;7.082;2022-09-12T08:18:00;10.60;;;6.27;;
3155;SDS011;1588;50.892;7.082;2022-09-12T08:23:04;11.40;;;6.87;;
3155;SDS011;1588;50.892;7.082;2022-09-12T08:28:06;9.27;;;6.03;;
3155;SDS011;1588;50.892;7.082;2022-09-12T08:33:14;15.33;;;6.57;;
3155;SDS011;1588;50.892;7.082;2022-09-12T08:38:18;11.37;;;6.57;;
3155;SDS011;1588;50.892;7.082;2022-09-12T08:43:25;13.13;;;6.20;;
3155;SDS011;1588;50.892;7.082;2022-09-12T08:48:48;11.00;;;5.97;;
3155;SDS011;1588;50.892;7.082;2022-09-12T08:53:53;12.50;;;5.97;;
3155;SDS011;1588;50.892;7.082;2022-09-12T08:58:57;10.70;;;6.10;;
3155;SDS011;1588;50.892;7.082;2022-09-12T09:09:20;9.50;;;5.80;;
3155;SDS011;1588;50.892;7.082;2022-09-12T09:14:39;8.77;;;5.80;;
3155;SDS011;1588;50.892;7.082;2022-09-12T09:19:53;11.97;;;6.20;;
3155;SDS011;1588;50.892;7.082;2022-09-12T09:25:04;7.70;;;5.17;;
3155;SDS011;1588;50.892;7.082;2022-09-12T09:30:13;9.33;;;5.67;;
3155;SDS011;1588;50.892;7.082;2022-09-12T09:35:21;11.60;;;5.10;;
3155;SDS011;1588;50.892;7.082;2022-09-12T09:40:35;6.93;;;4.60;;
3155;SDS011;1588;50.892;7.082;2022-09-12T09:45:46;9.27;;;4.57;;
3155;SDS011;1588;50.892;7.082;2022-09-12T09:50:49;7.13;;;4.33;;
3155;SDS011;1588;50.892;7.082;2022-09-12T09:55:54;7.33;;;4.77;;
3155;SDS011;1588;50.892;7.082;2022-09-12T10:01:05;7.20;;;4.90;;
3155;SDS011;1588;50.892;7.082;2022-09-12T10:06:22;7.33;;;4.80;;
3155;SDS011;1588;50.892;7.082;2022-09-12T10:11:33;8.10;;;5.00;;
3155;SDS011;1588;50.892;7.082;2022-09-12T10:16:47;4.73;;;4.20;;
3155;SDS011;1588;50.892;7.082;2022-09-12T10:21:52;10.37;;;4.33;;
3155;SDS011;1588;50.892;7.082;2022-09-12T10:27:06;4.90;;;4.40;;
3155;SDS011;1588;50.892;7.082;2022-09-12T10:32:19;7.93;;;3.73;;
3155;SDS011;1588;50.892;7.082;2022-09-12T10:37:27;7.83;;;4.10;;
3155;SDS011;1588;50.892;7.082;2022-09-12T10:42:47;4.40;;;3.70;;
3155;SDS011;1588;50.892;7.082;2022-09-12T10:47:53;4.70;;;3.67;;
3155;SDS011;1588;50.892;7.082;2022-09-12T10:53:15;4.80;;;3.47;;
3155;SDS011;1588;50.892;7.082;2022-09-12T10:58:26;4.20;;;3.80;;
3155;SDS011;1588;50.892;7.082;2022-09-12T11:03:42;5.90;;;4.23;;
3155;SDS011;1588;50.892;7.082;2022-09-12T11:08:59;4.07;;;3.40;;
3155;SDS011;1588;50.892;7.082;2022-09-12T11:14:29;7.63;;;3.50;;
3155;SDS011;1588;50.892;7.082;2022-09-12T11:19:55;7.93;;;3.40;;
3155;SDS011;1588;50.892;7.082;2022-09-12T11:25:18;3.23;;;2.93;;
3155;SDS011;1588;50.892;7.082;2022-09-12T11:30:36;3.30;;;2.87;;
3155;SDS011;1588;50.892;7.082;2022-09-12T11:35:43;3.90;;;2.70;;
3155;SDS011;1588;50.892;7.082;2022-09-12T11:40:49;4.20;;;2.57;;
3155;SDS011;1588;50.892;7.082;2022-09-12T11:45:56;4.70;;;2.37;;
3155;SDS011;1588;50.892;7.082;2022-09-12T11:51:04;2.50;;;2.30;;
3155;SDS011;1588;50.892;7.082;2022-09-12T11:56:16;3.93;;;2.10;;
3155;SDS011;1588;50.892;7.082;2022-09-12T12:01:22;2.60;;;2.40;;
3155;SDS011;1588;50.892;7.082;2022-09-12T12:06:29;3.10;;;2.00;;
3155;SDS011;1588;50.892;7.082;2022-09-12T12:11:34;2.93;;;2.10;;
3155;SDS011;1588;50.892;7.082;2022-09-12T12:16:45;3.80;;;1.70;;
3155;SDS011;1588;50.892;7.082;2022-09-12T12:21:49;6.87;;;1.90;;
3155;SDS011;1588;50.892;7.082;2022-09-12T12:26:53;2.10;;;1.90;;
3155;SDS011;1588;50.892;7.082;2022-09-12T12:32:24;2.23;;;2.03;;
3155;SDS011;1588;50.892;7.082;2022-09-12T12:42:59;2.50;;;2.30;;
3155;SDS011;1588;50.892;7.082;2022-09-12T12:48:08;2.40;;;2.07;;
3155;SDS011;1588;50.892;7.082;2022-09-12T12:53:16;3.83;;;2.20;;
3155;SDS011;1588;50.892;7.082;2022-09-12T12:58:25;3.30;;;1.93;;
3155;SDS011;1588;50.892;7.082;2022-09-12T13:03:33;5.70;;;2.30;;
3155;SDS011;1588;50.892;7.082;2022-09-12T13:08:38;8.00;;;2.70;;
3155;SDS011;1588;50.892;7.082;2022-09-12T13:13:57;2.53;;;2.33;;
3155;SDS011;1588;50.892;7.082;2022-09-12T13:19:04;3.53;;;2.10;;
3155;SDS011;1588;50.892;7.082;2022-09-12T13:24:11;3.67;;;2.43;;
3155;SDS011;1588;50.892;7.082;2022-09-12T13:29:19;5.50;;;2.30;;
3155;SDS011;1588;50.892;7.082;2022-09-12T13:34:25;2.50;;;1.90;;
3155;SDS011;1588;50.892;7.082;2022-09-12T13:39:33;2.93;;;2.63;;
3155;SDS011;1588;50.892;7.082;2022-09-12T13:44:46;4.83;;;2.60;;
3155;SDS011;1588;50.892;7.082;2022-09-12T13:49:53;4.83;;;2.90;;
3155;SDS011;1588;50.892;7.082;2022-09-12T13:54:57;4.47;;;2.67;;
3155;SDS011;1588;50.892;7.082;2022-09-12T14:00:02;2.63;;;2.27;;
3155;SDS011;1588;50.892;7.082;2022-09-12T14:05:12;4.63;;;2.70;;
3155;SDS011;1588;50.892;7.082;2022-09-12T14:10:20;5.67;;;2.93;;
3155;SDS011;1588;50.892;7.082;2022-09-12T14:15:36;5.23;;;3.13;;
3155;SDS011;1588;50.892;7.082;2022-09-12T14:20:40;2.73;;;2.53;;
3155;SDS011;1588;50.892;7.082;2022-09-12T14:25:42;12.60;;;2.70;;
3155;SDS011;1588;50.892;7.082;2022-09-12T14:30:56;3.00;;;2.57;;
3155;SDS011;1588;50.892;7.082;2022-09-12T14:36:15;3.60;;;3.23;;
3155;SDS011;1588;50.892;7.082;2022-09-12T14:41:25;3.37;;;3.00;;
3155;SDS011;1588;50.892;7.082;2022-09-12T14:46:30;4.63;;;3.03;;
3155;SDS011;1588;50.892;7.082;2022-09-12T14:51:44;3.20;;;2.90;;
3155;SDS011;1588;50.892;7.082;2022-09-12T14:56:54;5.47;;;2.90;;
3155;SDS011;1588;50.892;7.082;2022-09-12T15:07:30;5.90;;;2.90;;
3155;SDS011;1588;50.892;7.082;2022-09-12T15:12:34;3.10;;;2.80;;
3155;SDS011;1588;50.892;7.082;2022-09-12T15:17:36;3.00;;;2.70;;
3155;SDS011;1588;50.892;7.082;2022-09-12T15:22:40;2.80;;;2.43;;
3155;SDS011;1588;50.892;7.082;2022-09-12T15:27:43;3.10;;;2.80;;
3155;SDS011;1588;50.892;7.082;2022-09-12T15:32:46;3.97;;;3.00;;
3155;SDS011;1588;50.892;7.082;2022-09-12T15:37:50;3.37;;;3.00;;
3155;SDS011;1588;50.892;7.082;2022-09-12T15:42:52;2.90;;;2.70;;
3155;SDS011;1588;50.892;7.082;2022-09-12T15:47:55;5.13;;;3.10;;
3155;SDS011;1588;50.892;7.082;2022-09-12T15:53:11;3.90;;;3.10;;
3155;SDS011;1588;50.892;7.082;2022-09-12T15:58:18;10.13;;;2.63;;
3155;SDS011;1588;50.892;7.082;2022-09-12T16:03:21;4.43;;;3.07;;
3155;SDS011;1588;50.892;7.082;2022-09-12T16:08:29;3.47;;;3.13;;
3155;SDS011;1588;50.892;7.082;2022-09-12T16:13:36;7.20;;;3.23;;
3155;SDS011;1588;50.892;7.082;2022-09-12T16:18:40;5.33;;;3.57;;
3155;SDS011;1588;50.892;7.082;2022-09-12T16:23:44;7.73;;;3.00;;
3155;SDS011;1588;50.892;7.082;2022-09-12T16:28:52;4.43;;;3.00;;
3155;SDS011;1588;50.892;7.082;2022-09-12T16:33:55;3.40;;;3.10;;
3155;SDS011;1588;50.892;7.082;2022-09-12T16:38:59;6.03;;;3.30;;
3155;SDS011;1588;50.892;7.082;2022-09-12T16:44:03;7.10;;;3.00;;
3155;SDS011;1588;50.892;7.082;2022-09-12T16:49:06;4.37;;;3.33;;
3155;SDS011;1588;50.892;7.082;2022-09-12T16:54:09;3.50;;;3.00;;
3155;SDS011;1588;50.892;7.082;2022-09-12T16:59:12;6.57;;;3.53;;
3155;SDS011;1588;50.892;7.082;2022-09-12T17:04:16;4.03;;;2.87;;
3155;SDS011;1588;50.892;7.082;2022-09-12T17:09:19;4.57;;;3.37;;
3155;SDS011;1588;50.892;7.082;2022-09-12T17:14:22;4.27;;;2.77;;
3155;SDS011;1588;50.892;7.082;2022-09-12T17:19:25;4.17;;;2.77;;
3155;SDS011;1588;50.892;7.082;2022-09-12T17:24:30;4.80;;;2.80;;
3155;SDS011;1588;50.892;7.082;2022-09-12T17:29:41;7.03;;;2.93;;
3155;SDS011;1588;50.892;7.082;2022-09-12T17:34:48;4.93;;;3.27;;
3155;SDS011;1588;50.892;7.082;2022-09-12T17:39:52;4.63;;;3.00;;
3155;SDS011;1588;50.892;7.082;2022-09-12T17:44:54;3.47;;;3.17;;
3155;SDS011;1588;50.892;7.082;2022-09-12T17:49:57;3.90;;;3.17;;
3155;SDS011;1588;50.892;7.082;2022-09-12T17:55:01;6.27;;;3.07;;
3155;SDS011;1588;50.892;7.082;2022-09-12T18:00:04;8.47;;;2.87;;
3155;SDS011;1588;50.892;7.082;2022-09-12T18:05:07;3.67;;;2.87;;
3155;SDS011;1588;50.892;7.082;2022-09-12T18:10:11;7.00;;;3.27;;
3155;SDS011;1588;50.892;7.082;2022-09-12T18:15:13;2.77;;;2.57;;
3155;SDS011;1588;50.892;7.082;2022-09-12T18:20:16;3.50;;;3.10;;
3155;SDS011;1588;50.892;7.082;2022-09-12T18:25:34;3.10;;;2.70;;
3155;SDS011;1588;50.892;7.082;2022-09-12T18:30:36;4.33;;;3.10;;
3155;SDS011;1588;50.892;7.082;2022-09-12T18:35:38;3.93;;;3.27;;
3155;SDS011;1588;50.892;7.082;2022-09-12T18:40:42;3.77;;;3.03;;
3155;SDS011;1588;50.892;7.082;2022-09-12T18:45:45;4.27;;;3.27;;
3155;SDS011;1588;50.892;7.082;2022-09-12T18:50:51;5.53;;;3.27;;
3155;SDS011;1588;50.892;7.082;2022-09-12T18:56:18;4.03;;;3.43;;
3155;SDS011;1588;50.892;7.082;2022-09-12T19:01:21;3.83;;;2.93;;
3155;SDS011;1588;50.892;7.082;2022-09-12T19:06:26;4.53;;;2.97;;
3155;SDS011;1588;50.892;7.082;2022-09-12T19:11:42;4.07;;;3.07;;
3155;SDS011;1588;50.892;7.082;2022-09-12T19:16:49;3.67;;;3.00;;
3155;SDS011;1588;50.892;7.082;2022-09-12T19:22:03;4.17;;;3.20;;
3155;SDS011;1588;50.892;7.082;2022-09-12T19:27:10;5.03;;;3.10;;
3155;SDS011;1588;50.892;7.082;2022-09-12T19:32:13;4.30;;;2.93;;
3155;SDS011;1588;50.892;7.082;2022-09-12T19:37:16;3.70;;;2.87;;
3155;SDS011;1588;50.892;7.082;2022-09-12T19:42:19;6.70;;;2.77;;
3155;SDS011;1588;50.892;7.082;2022-09-12T19:47:22;4.30;;;3.07;;
3155;SDS011;1588;50.892;7.082;2022-09-12T19:52:27;5.07;;;2.90;;
3155;SDS011;1588;50.892;7.082;2022-09-12T19:57:31;5.50;;;2.70;;
3155;SDS011;1588;50.892;7.082;2022-09-12T20:02:34;4.87;;;3.13;;
3155;SDS011;1588;50.892;7.082;2022-09-12T20:07:37;4.47;;;3.10;;
3155;SDS011;1588;50.892;7.082;2022-09-12T20:12:41;6.33;;;3.10;;
3155;SDS011;1588;50.892;7.082;2022-09-12T20:17:44;4.87;;;2.77;;
3155;SDS011;1588;50.892;7.082;2022-09-12T20:22:51;5.00;;;3.20;;
3155;SDS011;1588;50.892;7.082;2022-09-12T20:27:56;5.37;;;3.63;;
3155;SDS011;1588;50.892;7.082;2022-09-12T20:32:59;4.93;;;3.40;;
3155;SDS011;1588;50.892;7.082;2022-09-12T20:38:02;7.60;;;3.20;;
3155;SDS011;1588;50.892;7.082;2022-09-12T20:43:17;4.70;;;3.13;;
3155;SDS011;1588;50.892;7.082;2022-09-12T20:54:41;5.07;;;2.73;;
3155;SDS011;1588;50.892;7.082;2022-09-12T21:00:21;8.50;;;3.10;;
3155;SDS011;1588;50.892;7.082;2022-09-12T21:05:23;4.43;;;3.20;;
3155;SDS011;1588;50.892;7.082;2022-09-12T21:10:26;6.43;;;3.50;;
3155;SDS011;1588;50.892;7.082;2022-09-12T21:15:29;5.53;;;3.67;;
3155;SDS011;1588;50.892;7.082;2022-09-12T21:20:32;6.60;;;3.50;;
3155;SDS011;1588;50.892;7.082;2022-09-12T21:25:34;4.40;;;3.13;;
3155;SDS011;1588;50.892;7.082;2022-09-12T21:30:39;6.03;;;3.07;;
3155;SDS011;1588;50.892;7.082;2022-09-12T21:35:41;6.40;;;3.50;;
3155;SDS011;1588;50.892;7.082;2022-09-12T21:40:44;3.70;;;2.97;;
3155;SDS011;1588;50.892;7.082;2022-09-12T21:45:49;4.83;;;3.23;;
3155;SDS011;1588;50.892;7.082;2022-09-12T21:50:58;6.00;;;3.20;;
3155;SDS011;1588;50.892;7.082;2022-09-12T21:56:01;5.30;;;3.30;;
3155;SDS011;1588;50.892;7.082;2022-09-12T22:01:08;4.70;;;3.30;;
3155;SDS011;1588;50.892;7.082;2022-09-12T22:06:13;7.03;;;3.50;;
3155;SDS011;1588;50.892;7.082;2022-09-12T22:11:15;6.70;;;4.17;;
3155;SDS011;1588;50.892;7.082;2022-09-12T22:16:20;15.57;;;3.90;;
3155;SDS011;1588;50.892;7.082;2022-09-12T22:21:23;9.47;;;3.67;;
3155;SDS011;1588;50.892;7.082;2022-09-12T22:26:25;9.00;;;3.83;;
3155;SDS011;1588;50.892;7.082;2022-09-12T22:31:30;8.00;;;3.40;;
3155;SDS011;1588;50.892;7.082;2022-09-12T22:36:32;5.27;;;3.60;;
3155;SDS011;1588;50.892;7.082;2022-09-12T22:41:34;7.67;;;3.47;;
3155;SDS011;1588;50.892;7.082;2022-09-12T22:46:40;7.63;;;3.33;;
3155;SDS011;1588;50.892;7.082;2022-09-12T22:51:42;5.87;;;3.63;;
3155;SDS011;1588;50.892;7.082;2022-09-12T22:56:44;6.10;;;4.33;;
3155;SDS011;1588;50.892;7.082;2022-09-12T23:01:48;6.60;;;3.90;;
3155;SDS011;1588;50.892;7.082;2022-09-12T23:06:50;6.83;;;3.90;;
3155;SDS011;1588;50.892;7.082;2022-09-12T23:11:53;4.93;;;3.67;;
3155;SDS011;1588;50.892;7.082;2022-09-12T23:16:58;7.30;;;5.17;;
3155;SDS011;1588;50.892;7.082;2022-09-12T23:22:00;5.27;;;3.57;;
3155;SDS011;1588;50.892;7.082;2022-09-12T23:27:04;6.57;;;4.70;;
3155;SDS011;1588;50.892;7.082;2022-09-12T23:32:07;6.50;;;4.13;;
3155;SDS011;1588;50.892;7.082;2022-09-12T23:37:10;22.83;;;4.90;;
3155;SDS011;1588;50.892;7.082;2022-09-12T23:42:12;5.60;;;3.93;;
3155;SDS011;1588;50.892;7.082;2022-09-12T23:47:16;8.70;;;4.47;;
3155;SDS011;1588;50.892;7.082;2022-09-12T23:52:19;6.60;;;4.00;;
3155;SDS011;1588;50.892;7.082;2022-09-12T23:57:21;6.37;;;4.40;;
